Pittsfield, IL

4:11 PM CDT on August 20, 2014 (GMT -0500)
Pittsfield Penstone Municipal | Change Station
CLOSE
Current Station
Airport
Location: Pittsfield,
Elevation: 709 ft
Nearby Weather Stations

Elev 709 ft 39.64 °N, 90.78 °W | Updated 16 minutes ago

Clear
Clear
84 °F
Feels Like 93 °F
N
5
Wind Variable Wind from East

Today
High -- | Low -- °F
--% Chance of Precip.
Yesterday
High -- | Low -- °F
Precip. -- in
6:20 AM 7:52 PM
Waning Crescent, 19% visible
Pressure 29.95 in
Visibility 10.0 miles
Clouds Clear
Heat Index 93 °F
Dew Point 75 °F
Humidity 74%
Rainfall 0.08 in
Snow Depth Not available.
UV 6 out of 12
Pollen 9.60 out of 12
Air Quality Not available.
Flu Activity Not available.
METAR KPPQ 202055Z AUTO 09004KT 10SM CLR 29/24 A2995 RMK AO2 T02910241

More Conditions Fewer Conditions

Pressure 29.95 in
Visibility 10.0 miles
Clouds Clear
Heat Index 93 °F
Dew Point 75 °F
Humidity 74%
Rainfall 0.08 in
Snow Depth Not available.
UV 6 out of 12
Pollen 9.60 out of 12
Air Quality Not available.
Flu Activity Not available.
METAR KPPQ 202055Z AUTO 09004KT 10SM CLR 29/24 A2995 RMK AO2 T02910241

More Conditions Fewer Conditions

10-Day Weather Forecast

Almanac

Astronomy

Aug. 20, 2014 Rise Set
Actual Time 6:20 AM CDT 7:52 PM CDT
Civil Twilight 5:51 AM CDT 8:20 PM CDT
Nautical Twilight 5:17 AM CDT 8:54 PM CDT
Astronomical Twilight 4:41 AM CDT 9:30 PM CDT
Moon 2:00 AM CDT 4:37 PM CDT
Length of Visible Light 14h 28m
Length of Day
13h 31m
Tomorrow will be 2m 22s shorter.
Waning Crescent, 19% of the Moon is Illuminated
Today
Waning Crescent
Aug 25
New
Sep 2
First Quarter
Sep 8
Full
Sep 15
Last Quarter

Today's Extremes

State Highs State Lows

Community

WunderPhotos

Upload Photos

1,745,762 photos uploaded!

WunderBlogs® & News

Nearby

Snow Depth

Station Depth Elevation
No new snow has been reported.

Earthquake Activity

City Distance Mag. Time & Date
No recent earthquake activity has been reported nearby.
Minimum magnitude displayed is 2.5.

Coastal Water Temperatures

Place Temperature
No Stations Reporting

Nearby Weather Stations